Paoli, CO (80746)

8:22 AM MST on March 03, 2015 (GMT -0700)
Sterling Municipal | Change Station
CLOSE
Current Station
Airport
Location: Sterling Muni, Sterling, CO,
Elevation: 4039 ft
Nearby Weather Stations

Elev 4039 ft 40.62 °N, 103.26 °W | Updated 12 minutes ago

Mostly Cloudy
Mostly Cloudy
27 °F
Feels Like 11 °F
N
25
Wind Variable Wind from North
Gusts 34 mph

Today
High -- | Low -- °F
--% Chance of Precip.
Yesterday
High -- | Low -- °F
Precip. -- in
6:21 AM 5:43 PM
Waxing Gibbous, 96% visible
Pressure 29.87 in
Visibility 10.0 miles
Clouds Scattered Clouds 4300 ft
Scattered Clouds 6500 ft
Windchill 11 °F
Dew Point 18 °F
Humidity 69%
Rainfall 0.00 in
Snow Depth Not available.
UV 1 out of 12
Pollen 3.70 out of 12
Air Quality Not available.
Flu Activity Not available.
METAR KSTK 031510Z AUTO 01022G30KT 10SM SCT043 SCT065 M03/M08 A2987 RMK AO2

More Conditions Fewer Conditions

Pressure 29.87 in
Visibility 10.0 miles
Clouds Scattered Clouds 4300 ft
Scattered Clouds 6500 ft
Windchill 11 °F
Dew Point 18 °F
Humidity 69%
Rainfall 0.00 in
Snow Depth Not available.
UV 1 out of 12
Pollen 3.70 out of 12
Air Quality Not available.
Flu Activity Not available.
METAR KSTK 031510Z AUTO 01022G30KT 10SM SCT043 SCT065 M03/M08 A2987 RMK AO2

More Conditions Fewer Conditions

Nowcast | as of 6:53 am MST on March 3, 2015

North winds at 20 to 35 mph will continue across northeastern Colorado this morning...with wind chills near zero. There will also be isolated light snow showers developing and some areas may receive a dusting of snow.

×

10-Day Weather Forecast

Almanac

Astronomy

Mar. 03, 2015 Rise Set
Actual Time
Civil Twilight
Nautical Twilight
Astronomical Twilight
Moon
Length of Visible Light
Length of Day
Tomorrow will be .
, % of the Moon is Illuminated

Today's Extremes

State Highs State Lows

Community

WunderPhotos

Upload Photos

1,802,146 photos uploaded!

WunderBlogs® & News

Nearby

Air Quality

  Air Quality AQ Index Pollutant
Not available.

Snow Depth

Station Depth Elevation

Earthquake Activity

City Distance Mag. Time & Date
Minimum magnitude displayed is 2.5.

Coastal Water Temperatures

Place Temperature

Nearby Weather Stations